createdAt,value
2022-09-23T00:01:07.851Z,7.05
2022-09-23T00:03:38.224Z,7.63
2022-09-23T00:06:08.384Z,7.68
2022-09-23T00:08:38.629Z,7.32
2022-09-23T00:11:07.797Z,6.63
2022-09-23T00:13:41.773Z,7.63
2022-09-23T00:16:12.863Z,7.32
2022-09-23T00:18:42.875Z,7.00
2022-09-23T00:21:12.757Z,6.80
2022-09-23T00:23:43.931Z,6.82
2022-09-23T00:26:15.812Z,6.90
2022-09-23T00:28:44.918Z,6.53
2022-09-23T00:31:15.359Z,7.22
2022-09-23T00:33:43.936Z,7.28
2022-09-23T00:36:15.757Z,6.90
2022-09-23T00:38:46.302Z,6.87
2022-09-23T00:41:16.156Z,6.78
2022-09-23T00:43:46.870Z,7.53
2022-09-23T00:46:19.735Z,7.13
2022-09-23T00:48:49.640Z,7.32
2022-09-23T00:51:22.227Z,7.47
2022-09-23T00:53:53.331Z,8.05
2022-09-23T00:56:24.010Z,7.20
2022-09-23T00:58:52.383Z,7.03
2022-09-23T01:01:21.692Z,7.40
2022-09-23T01:03:51.239Z,7.82
2022-09-23T01:06:21.850Z,7.00
2022-09-23T01:08:51.964Z,7.40
2022-09-23T01:11:38.656Z,6.97
2022-09-23T01:14:37.489Z,7.30
2022-09-23T01:17:10.604Z,7.78
2022-09-23T01:19:59.778Z,7.65
2022-09-23T01:22:36.723Z,7.63
2022-09-23T01:25:26.509Z,6.90
2022-09-23T01:28:23.841Z,7.38
2022-09-23T01:30:58.250Z,7.50
2022-09-23T01:33:36.358Z,7.40
2022-09-23T01:36:11.941Z,7.60
2022-09-23T01:38:46.113Z,7.80
2022-09-23T01:41:25.486Z,7.97
2022-09-23T01:44:01.317Z,7.70
2022-09-23T01:46:36.530Z,7.63
2022-09-23T01:49:10.045Z,8.38
2022-09-23T01:51:41.839Z,8.27
2022-09-23T01:54:16.453Z,7.40
2022-09-23T01:56:52.440Z,8.30
2022-09-23T01:59:26.440Z,8.02
2022-09-23T02:02:01.033Z,7.68
2022-09-23T02:04:36.666Z,8.02
2022-09-23T02:07:11.360Z,7.80
2022-09-23T02:09:45.972Z,7.95
2022-09-23T02:12:18.753Z,8.13
2022-09-23T02:17:25.567Z,8.43
2022-09-23T02:19:57.684Z,8.30
2022-09-23T02:22:29.689Z,7.57
2022-09-23T02:24:59.123Z,8.10
2022-09-23T02:27:33.156Z,8.15
2022-09-23T02:30:08.985Z,8.38
2022-09-23T02:32:46.368Z,8.07
2022-09-23T02:35:19.533Z,8.85
2022-09-23T02:37:55.608Z,7.68
2022-09-23T02:40:29.297Z,8.23
2022-09-23T02:43:10.397Z,8.50
2022-09-23T02:45:39.189Z,8.00
2022-09-23T02:48:14.759Z,8.18
2022-09-23T02:50:43.094Z,8.88
2022-09-23T02:53:11.985Z,9.05
2022-09-23T02:55:41.496Z,8.82
2022-09-23T02:58:14.055Z,9.30
2022-09-23T03:00:52.328Z,9.85
2022-09-23T03:03:37.640Z,8.32
2022-09-23T03:06:16.727Z,9.57
2022-09-23T03:08:53.451Z,9.20
2022-09-23T03:11:22.249Z,9.52
2022-09-23T03:14:05.136Z,9.20
2022-09-23T03:16:39.802Z,9.57
2022-09-23T03:19:21.485Z,9.73
2022-09-23T03:21:57.943Z,9.45
2022-09-23T03:24:27.296Z,10.00
2022-09-23T03:26:58.987Z,10.20
2022-09-23T03:29:28.920Z,10.02
2022-09-23T03:31:58.303Z,9.93
2022-09-23T03:34:30.781Z,8.88
2022-09-23T03:37:05.131Z,9.98
2022-09-23T03:39:40.269Z,10.48
2022-09-23T03:42:16.930Z,9.10
2022-09-23T03:44:47.098Z,10.63
2022-09-23T03:47:16.778Z,9.70
2022-09-23T03:49:49.306Z,9.43
2022-09-23T03:52:17.938Z,8.68
2022-09-23T03:54:46.412Z,8.57
2022-09-23T03:57:15.280Z,8.82
2022-09-23T03:59:43.703Z,9.15
2022-09-23T04:02:11.980Z,9.13
2022-09-23T04:04:41.397Z,8.98
2022-09-23T04:07:11.989Z,9.27
2022-09-23T04:09:40.399Z,8.90
2022-09-23T04:12:09.005Z,9.63
2022-09-23T04:14:37.305Z,9.48
2022-09-23T04:17:05.576Z,8.68
2022-09-23T04:19:33.673Z,8.80
2022-09-23T04:22:02.135Z,9.13
2022-09-23T04:24:31.898Z,8.90
2022-09-23T04:27:00.228Z,9.27
2022-09-23T04:29:28.678Z,8.82
2022-09-23T04:31:57.834Z,9.43
2022-09-23T04:34:25.936Z,9.27
2022-09-23T04:36:53.956Z,9.40
2022-09-23T04:39:22.001Z,9.57
2022-09-23T04:41:51.514Z,8.95
2022-09-23T04:44:21.151Z,8.95
2022-09-23T04:46:49.398Z,8.70
2022-09-23T04:49:18.489Z,8.68
2022-09-23T04:51:47.667Z,8.95
2022-09-23T04:54:15.990Z,9.20
2022-09-23T04:56:44.274Z,9.43
2022-09-23T04:59:13.697Z,8.80
2022-09-23T05:01:42.309Z,8.80
2022-09-23T05:04:14.064Z,8.73
2022-09-23T05:06:44.086Z,8.30
2022-09-23T05:09:17.602Z,8.73
2022-09-23T05:11:45.860Z,8.48
2022-09-23T05:14:15.421Z,9.82
2022-09-23T05:16:43.779Z,8.52
2022-09-23T05:19:13.640Z,8.95
2022-09-23T05:21:42.161Z,9.23
2022-09-23T05:24:10.879Z,9.68
2022-09-23T05:26:39.386Z,9.13
2022-09-23T05:29:07.889Z,9.60
2022-09-23T05:31:37.879Z,9.27
2022-09-23T05:34:06.997Z,9.82
2022-09-23T05:36:38.609Z,9.30
2022-09-23T05:39:08.853Z,10.23
2022-09-23T05:41:37.132Z,9.02
2022-09-23T05:44:05.715Z,8.85
2022-09-23T05:46:34.204Z,8.50
2022-09-23T05:49:04.464Z,8.90
2022-09-23T05:51:34.384Z,8.88
2022-09-23T05:54:04.353Z,9.38
2022-09-23T05:56:34.108Z,8.63
2022-09-23T05:59:03.707Z,8.27
2022-09-23T06:01:34.207Z,9.15
2022-09-23T06:04:06.091Z,9.32
2022-09-23T06:06:35.989Z,8.07
2022-09-23T06:09:05.116Z,8.90
2022-09-23T06:11:34.427Z,8.98
2022-09-23T06:14:03.314Z,9.23
2022-09-23T06:16:33.455Z,8.30
2022-09-23T06:19:06.441Z,8.73
2022-09-23T06:21:36.719Z,8.15
2022-09-23T06:24:05.222Z,9.07
2022-09-23T06:26:35.154Z,8.18
2022-09-23T06:29:04.636Z,8.32
2022-09-23T06:31:33.046Z,9.27
2022-09-23T06:34:10.760Z,9.48
2022-09-23T06:36:44.939Z,9.68
2022-09-23T06:39:14.933Z,8.00
2022-09-23T06:41:43.360Z,8.85
2022-09-23T06:44:11.490Z,8.75
2022-09-23T06:46:39.583Z,8.43
2022-09-23T06:49:08.156Z,8.43
2022-09-23T06:51:36.325Z,8.68
2022-09-23T06:54:06.011Z,8.20
2022-09-23T06:56:38.797Z,8.18
2022-09-23T06:59:08.417Z,8.55
2022-09-23T07:01:36.481Z,7.88
2022-09-23T07:04:05.106Z,7.55
2022-09-23T07:06:33.254Z,6.60
2022-09-23T07:09:01.853Z,7.10
2022-09-23T07:11:31.446Z,6.70
2022-09-23T07:14:01.904Z,6.75
2022-09-23T07:16:30.174Z,6.80
2022-09-23T07:18:58.377Z,6.35
2022-09-23T07:21:28.030Z,6.63
2022-09-23T07:23:58.128Z,6.30
2022-09-23T07:26:27.194Z,6.68
2022-09-23T07:29:04.706Z,6.47
2022-09-23T07:31:39.147Z,6.82
2022-09-23T07:34:08.271Z,6.80
2022-09-23T07:36:37.510Z,7.05
2022-09-23T07:39:05.789Z,6.05
2022-09-23T07:41:35.096Z,6.15
2022-09-23T07:44:06.363Z,6.50
2022-09-23T07:46:37.280Z,6.22
2022-09-23T07:49:08.107Z,6.22
2022-09-23T07:51:38.273Z,6.70
2022-09-23T07:54:08.797Z,6.65
2022-09-23T07:56:37.942Z,7.00
2022-09-23T07:59:09.341Z,6.18
2022-09-23T08:01:39.903Z,6.22
2022-09-23T08:04:10.375Z,5.95
2022-09-23T08:06:42.632Z,7.40
2022-09-23T08:09:11.446Z,6.40
2022-09-23T08:11:42.085Z,6.68
2022-09-23T08:14:13.645Z,6.15
2022-09-23T08:16:42.080Z,6.35
2022-09-23T08:19:10.531Z,8.15
2022-09-23T08:21:39.469Z,6.85
2022-09-23T08:24:08.146Z,6.18
2022-09-23T08:26:36.567Z,6.13
2022-09-23T08:29:04.801Z,6.38
2022-09-23T08:31:34.259Z,5.93
2022-09-23T08:34:02.611Z,6.60
2022-09-23T08:36:30.733Z,6.07
2022-09-23T08:38:58.815Z,6.43
2022-09-23T08:41:37.196Z,6.45
2022-09-23T08:44:13.831Z,6.78
2022-09-23T08:46:47.631Z,6.55
2022-09-23T08:49:24.968Z,6.50
2022-09-23T08:51:55.912Z,6.47
2022-09-23T08:54:26.877Z,7.00
2022-09-23T08:56:58.886Z,7.10
2022-09-23T08:59:31.788Z,6.97
2022-09-23T09:02:06.618Z,7.00
2022-09-23T09:04:44.431Z,6.05
2022-09-23T09:07:36.590Z,6.75
2022-09-23T09:10:11.824Z,7.10
2022-09-23T09:12:44.630Z,6.25
2022-09-23T09:15:15.154Z,6.65
2022-09-23T09:17:55.836Z,7.25
2022-09-23T09:20:26.366Z,6.30
2022-09-23T09:22:57.866Z,6.40
2022-09-23T09:25:41.183Z,6.13
2022-09-23T09:30:48.521Z,6.32
2022-09-23T09:33:22.317Z,6.22
2022-09-23T09:36:08.957Z,5.80
2022-09-23T09:38:37.485Z,5.60
2022-09-23T09:41:13.800Z,6.10
2022-09-23T09:43:44.298Z,6.15
2022-09-23T09:46:24.502Z,6.32
2022-09-23T09:48:59.825Z,6.35
2022-09-23T09:51:30.138Z,6.10
2022-09-23T09:54:18.131Z,5.90
2022-09-23T09:59:23.453Z,5.80
2022-09-23T10:02:14.061Z,6.05
2022-09-23T10:04:44.342Z,6.22
2022-09-23T10:07:15.688Z,5.72
2022-09-23T10:09:51.101Z,6.03
2022-09-23T10:12:21.493Z,6.60
2022-09-23T10:14:51.892Z,6.50
2022-09-23T10:17:23.062Z,6.88
2022-09-23T10:20:00.832Z,6.00
2022-09-23T10:22:34.896Z,6.22
2022-09-23T10:25:08.836Z,6.47
2022-09-23T10:27:38.860Z,6.80
2022-09-23T10:30:22.352Z,7.00
2022-09-23T10:32:51.142Z,6.53
2022-09-23T10:35:22.687Z,6.40
2022-09-23T10:37:52.848Z,6.43
2022-09-23T10:40:45.971Z,6.32
2022-09-23T10:43:42.504Z,6.78
2022-09-23T10:46:36.117Z,6.07
2022-09-23T10:49:33.566Z,6.57
2022-09-23T10:52:36.137Z,5.43
2022-09-23T10:55:15.617Z,6.87
2022-09-23T10:58:04.328Z,6.20
2022-09-23T11:00:41.194Z,6.18
2022-09-23T11:03:40.382Z,5.90
2022-09-23T11:06:20.114Z,5.65
2022-09-23T11:09:00.181Z,6.13
2022-09-23T11:11:39.720Z,5.90
2022-09-23T11:14:40.921Z,5.78
2022-09-23T11:17:34.560Z,5.00
2022-09-23T11:20:32.726Z,6.03
2022-09-23T11:23:24.456Z,5.90
2022-09-23T11:26:07.396Z,5.75
2022-09-23T11:31:36.477Z,5.60
2022-09-23T11:34:23.069Z,6.03
2022-09-23T11:36:57.993Z,6.15
2022-09-23T11:39:32.229Z,6.28
2022-09-23T11:42:03.664Z,5.70
2022-09-23T11:44:36.758Z,5.75
2022-09-23T11:47:10.008Z,6.18
2022-09-23T11:49:43.447Z,5.95
2022-09-23T11:52:19.593Z,6.30
2022-09-23T11:54:54.272Z,5.90
2022-09-23T11:57:32.798Z,6.47
2022-09-23T12:00:07.957Z,5.50
2022-09-23T12:03:04.796Z,6.43
2022-09-23T12:05:37.244Z,6.35
2022-09-23T12:08:17.944Z,6.70
2022-09-23T12:10:54.964Z,6.45
2022-09-23T12:13:34.969Z,5.97
2022-09-23T12:16:32.357Z,6.18
2022-09-23T12:19:14.928Z,6.28
2022-09-23T12:22:01.341Z,6.53
2022-09-23T12:24:55.739Z,7.05
2022-09-23T12:27:32.288Z,6.07
2022-09-23T12:30:04.581Z,6.28
2022-09-23T12:32:33.453Z,6.18
2022-09-23T12:35:02.842Z,6.63
2022-09-23T12:37:35.625Z,6.70
2022-09-23T12:42:43.713Z,6.65
2022-09-23T12:45:38.994Z,7.10
2022-09-23T12:48:39.919Z,6.90
2022-09-23T12:51:17.596Z,7.18
2022-09-23T12:54:15.333Z,7.97
2022-09-23T12:57:10.374Z,8.63
2022-09-23T12:59:59.239Z,8.35
2022-09-23T13:02:33.299Z,8.25
2022-09-23T13:05:32.175Z,7.50
2022-09-23T13:08:04.144Z,5.70
2022-09-23T13:10:35.029Z,7.47
2022-09-23T13:13:04.012Z,7.35
2022-09-23T13:15:34.604Z,7.07
2022-09-23T13:18:39.138Z,6.95
2022-09-23T13:21:17.989Z,6.75
2022-09-23T13:24:18.070Z,7.60
2022-09-23T13:26:47.918Z,7.68
2022-09-23T13:29:21.244Z,7.45
2022-09-23T13:31:49.804Z,7.65
2022-09-23T13:34:24.119Z,7.03
2022-09-23T13:36:53.647Z,7.97
2022-09-23T13:39:24.629Z,7.40
2022-09-23T13:41:56.722Z,8.15
2022-09-23T13:44:25.000Z,7.50
2022-09-23T13:46:56.430Z,7.93
2022-09-23T13:49:29.325Z,8.07
2022-09-23T13:51:58.473Z,7.60
2022-09-23T13:54:32.245Z,7.55
2022-09-23T13:57:01.457Z,7.90
2022-09-23T13:59:31.712Z,7.30
2022-09-23T14:02:08.277Z,6.28
2022-09-23T14:04:38.017Z,5.28
2022-09-23T14:07:08.754Z,5.22
2022-09-23T14:09:39.202Z,5.05
2022-09-23T14:12:10.166Z,5.55
2022-09-23T14:14:40.834Z,4.80
2022-09-23T14:17:10.232Z,5.43
2022-09-23T14:19:39.828Z,5.18
2022-09-23T14:22:23.442Z,5.63
2022-09-23T14:24:52.464Z,4.85
2022-09-23T14:27:28.500Z,5.25
2022-09-23T14:29:57.269Z,4.95
2022-09-23T14:32:29.154Z,4.82
2022-09-23T14:35:17.716Z,4.33
2022-09-23T14:38:04.398Z,5.00
2022-09-23T14:40:34.310Z,4.43
2022-09-23T14:43:06.329Z,4.22
2022-09-23T14:45:38.262Z,4.57
2022-09-23T14:48:11.928Z,4.30
2022-09-23T14:50:48.577Z,3.80
2022-09-23T14:53:40.330Z,3.80
2022-09-23T14:56:17.704Z,3.55
2022-09-23T14:58:52.381Z,3.72
2022-09-23T15:01:39.740Z,3.50
2022-09-23T15:04:14.062Z,3.53
2022-09-23T15:06:47.747Z,2.97
2022-09-23T15:09:23.654Z,3.42
2022-09-23T15:11:59.158Z,3.15
2022-09-23T15:14:39.389Z,3.38
2022-09-23T15:17:17.931Z,3.10
2022-09-23T15:19:52.580Z,2.95
2022-09-23T15:22:22.420Z,2.92
2022-09-23T15:24:52.792Z,2.97
2022-09-23T15:27:41.695Z,3.45
2022-09-23T15:30:16.398Z,3.20
2022-09-23T15:32:45.378Z,2.92
2022-09-23T15:35:15.856Z,3.65
2022-09-23T15:37:49.595Z,3.35
2022-09-23T15:40:21.264Z,3.75
2022-09-23T15:42:51.645Z,3.70
2022-09-23T15:45:22.474Z,3.72
2022-09-23T15:47:52.383Z,3.60
2022-09-23T15:50:21.126Z,3.90
2022-09-23T15:52:50.540Z,3.97
2022-09-23T15:55:22.339Z,3.83
2022-09-23T15:57:50.585Z,4.18
2022-09-23T16:00:19.008Z,3.60
2022-09-23T16:02:49.250Z,4.10
2022-09-23T16:05:30.768Z,3.67
2022-09-23T16:08:04.918Z,4.18
2022-09-23T16:10:36.262Z,4.05
2022-09-23T16:13:07.850Z,4.30
2022-09-23T16:15:36.008Z,4.38
2022-09-23T16:18:07.210Z,4.97
2022-09-23T16:20:37.305Z,4.95
2022-09-23T16:23:08.851Z,4.57
2022-09-23T16:25:38.307Z,4.57
2022-09-23T16:28:06.761Z,4.90
2022-09-23T16:30:35.735Z,4.90
2022-09-23T16:33:03.958Z,4.82
2022-09-23T16:35:34.644Z,5.43
2022-09-23T16:38:02.732Z,5.68
2022-09-23T16:40:32.690Z,6.10
2022-09-23T16:43:02.364Z,5.80
2022-09-23T16:45:31.310Z,5.80
2022-09-23T16:47:59.535Z,5.30
2022-09-23T16:50:29.352Z,5.65
2022-09-23T16:52:57.777Z,5.25
2022-09-23T16:55:27.501Z,5.85
2022-09-23T16:57:57.363Z,5.28
2022-09-23T17:00:43.089Z,5.78
2022-09-23T17:03:30.799Z,6.03
2022-09-23T17:06:00.674Z,5.03
2022-09-23T17:08:31.090Z,6.45
2022-09-23T17:11:01.247Z,6.68
2022-09-23T17:13:32.466Z,8.48
2022-09-23T17:16:02.745Z,10.65
2022-09-23T17:18:33.673Z,10.70
2022-09-23T17:21:03.639Z,10.77
2022-09-23T17:23:32.660Z,9.88
2022-09-23T17:26:01.303Z,9.27
2022-09-23T17:28:30.706Z,8.20
2022-09-23T17:31:00.697Z,7.30
2022-09-23T17:33:30.733Z,8.32
2022-09-23T17:36:00.206Z,8.23
2022-09-23T17:38:29.567Z,8.25
2022-09-23T17:41:01.329Z,8.02
2022-09-23T17:43:31.669Z,7.63
2022-09-23T17:46:05.390Z,7.35
2022-09-23T17:48:35.270Z,7.40
2022-09-23T17:51:05.441Z,8.05
2022-09-23T17:53:37.399Z,7.90
2022-09-23T17:56:07.552Z,8.70
2022-09-23T17:58:38.472Z,9.15
2022-09-23T18:01:10.634Z,8.80
2022-09-23T18:03:43.527Z,9.57
2022-09-23T18:06:13.967Z,9.93
2022-09-23T18:08:43.670Z,10.23
2022-09-23T18:11:16.477Z,10.75
2022-09-23T18:16:16.077Z,10.88
2022-09-23T18:18:44.701Z,11.07
2022-09-23T18:21:12.811Z,10.88
2022-09-23T18:23:40.868Z,10.63
2022-09-23T18:26:14.870Z,10.93
2022-09-23T18:28:43.602Z,11.40
2022-09-23T18:31:13.525Z,11.50
2022-09-23T18:33:42.182Z,12.00
2022-09-23T18:36:10.960Z,11.60
2022-09-23T18:38:39.906Z,12.30
2022-09-23T18:41:08.230Z,11.85
2022-09-23T18:43:40.732Z,11.68
2022-09-23T18:46:15.685Z,12.32
2022-09-23T18:49:01.939Z,12.55
2022-09-23T18:51:32.163Z,12.88
2022-09-23T18:54:02.306Z,12.73
2022-09-23T18:56:33.554Z,13.30
2022-09-23T18:59:02.342Z,14.13
2022-09-23T19:01:32.033Z,13.38
2022-09-23T19:04:02.270Z,13.90
2022-09-23T19:06:32.997Z,14.25
2022-09-23T19:09:01.197Z,13.75
2022-09-23T19:11:29.529Z,15.02
2022-09-23T19:14:00.511Z,15.02
2022-09-23T19:16:29.391Z,15.73
2022-09-23T19:18:59.887Z,15.07
2022-09-23T19:21:29.351Z,15.60
2022-09-23T19:24:00.375Z,16.67
2022-09-23T19:26:31.750Z,16.13
2022-09-23T19:29:01.496Z,17.58
2022-09-23T19:31:31.532Z,17.85
2022-09-23T19:34:02.699Z,17.30
2022-09-23T19:36:32.461Z,18.30
2022-09-23T19:39:02.804Z,17.17
2022-09-23T19:41:33.406Z,18.38
2022-09-23T19:44:03.637Z,18.23
2022-09-23T19:46:32.501Z,17.77
2022-09-23T19:49:03.491Z,18.20
2022-09-23T19:51:33.993Z,17.98
2022-09-23T19:54:02.762Z,17.90
2022-09-23T19:56:32.005Z,19.75
2022-09-23T19:59:03.052Z,18.70
2022-09-23T20:01:32.515Z,17.90
2022-09-23T20:04:02.694Z,18.38
2022-09-23T20:06:31.512Z,18.42
2022-09-23T20:09:00.921Z,18.48
2022-09-23T20:11:32.512Z,19.05
2022-09-23T20:14:04.816Z,19.85
2022-09-23T20:16:35.269Z,19.17
2022-09-23T20:19:05.674Z,18.83
2022-09-23T20:21:34.578Z,18.50
2022-09-23T20:24:06.484Z,19.95
2022-09-23T20:26:52.379Z,20.45
2022-09-23T20:29:20.461Z,20.02
2022-09-23T20:31:49.022Z,21.05
2022-09-23T20:34:18.778Z,20.30
2022-09-23T20:36:46.956Z,20.83
2022-09-23T20:39:14.978Z,20.85
2022-09-23T20:41:43.363Z,19.67
2022-09-23T20:44:14.067Z,20.23
2022-09-23T20:46:47.768Z,20.90
2022-09-23T20:49:18.731Z,20.38
2022-09-23T20:51:48.719Z,21.20
2022-09-23T20:54:19.014Z,21.77
2022-09-23T20:56:47.154Z,21.20
2022-09-23T20:59:17.703Z,22.67
2022-09-23T21:01:47.706Z,23.20
2022-09-23T21:04:16.221Z,21.90
2022-09-23T21:06:45.823Z,22.60
2022-09-23T21:09:13.893Z,22.20
2022-09-23T21:11:42.016Z,20.55
2022-09-23T21:14:10.780Z,22.90
2022-09-23T21:16:41.562Z,21.77
2022-09-23T21:19:09.732Z,20.48
2022-09-23T21:21:37.817Z,20.73
2022-09-23T21:24:40.080Z,20.70
2022-09-23T21:26:57.760Z,20.73
2022-09-23T21:29:28.092Z,21.50
2022-09-23T21:31:56.146Z,20.70
2022-09-23T21:34:26.132Z,20.98
2022-09-23T21:36:54.568Z,22.35
2022-09-23T21:39:23.970Z,21.58
2022-09-23T21:41:52.112Z,21.25
2022-09-23T21:44:20.264Z,22.15
2022-09-23T21:46:49.618Z,21.10
2022-09-23T21:49:17.942Z,21.25
2022-09-23T21:51:46.077Z,23.27
2022-09-23T21:54:18.055Z,21.55
2022-09-23T21:56:47.677Z,21.67
2022-09-23T21:59:15.713Z,22.20
2022-09-23T22:01:45.114Z,21.52
2022-09-23T22:04:17.242Z,22.00
2022-09-23T22:06:46.715Z,23.03
2022-09-23T22:09:17.013Z,21.98
2022-09-23T22:12:03.009Z,21.33
2022-09-23T22:14:32.834Z,22.05
2022-09-23T22:17:02.731Z,21.40
2022-09-23T22:19:35.018Z,22.27
2022-09-23T22:22:07.044Z,23.25
2022-09-23T22:24:35.163Z,21.45
2022-09-23T22:27:03.151Z,21.35
2022-09-23T22:29:49.963Z,21.38
2022-09-23T22:32:35.273Z,21.90
2022-09-23T22:35:03.553Z,21.75
2022-09-23T22:37:34.362Z,21.40
2022-09-23T22:40:02.938Z,21.70
2022-09-23T22:42:31.352Z,22.35
2022-09-23T22:45:05.958Z,21.83
2022-09-23T22:47:36.885Z,22.13
2022-09-23T22:50:05.266Z,21.92
2022-09-23T22:52:33.948Z,21.05
2022-09-23T22:55:04.640Z,21.40
2022-09-23T22:57:32.672Z,22.77
2022-09-23T23:00:00.747Z,23.20
2022-09-23T23:02:31.503Z,23.23
2022-09-23T23:05:00.460Z,22.77
2022-09-23T23:07:28.469Z,22.13
2022-09-23T23:09:56.497Z,23.30
2022-09-23T23:12:24.706Z,23.23
2022-09-23T23:14:52.863Z,22.50
2022-09-23T23:17:21.823Z,22.42
2022-09-23T23:19:51.637Z,22.20
2022-09-23T23:22:20.026Z,21.67
2022-09-23T23:24:48.079Z,23.75
2022-09-23T23:27:16.156Z,22.80
2022-09-23T23:29:44.152Z,23.40
2022-09-23T23:32:12.151Z,23.40
2022-09-23T23:34:40.156Z,23.35
2022-09-23T23:37:09.611Z,24.17
2022-09-23T23:39:37.697Z,23.75
2022-09-23T23:42:08.245Z,22.70
2022-09-23T23:44:36.931Z,22.80
2022-09-23T23:47:05.083Z,22.23
2022-09-23T23:49:33.237Z,21.83
2022-09-23T23:52:01.586Z,21.55
2022-09-23T23:54:32.226Z,21.67
2022-09-23T23:57:00.369Z,19.92
2022-09-23T23:59:28.390Z,20.17
